createdAt,value
2019-03-08T00:03:52.389Z,0.70
2019-03-08T00:07:56.599Z,0.60
2019-03-08T00:12:00.880Z,0.87
2019-03-08T00:16:05.002Z,0.70
2019-03-08T00:20:09.012Z,0.87
2019-03-08T00:24:12.955Z,0.70
2019-03-08T00:28:16.895Z,1.00
2019-03-08T00:32:20.929Z,0.60
2019-03-08T00:36:25.318Z,0.60
2019-03-08T00:40:29.260Z,0.70
2019-03-08T00:44:33.308Z,0.60
2019-03-08T00:48:37.326Z,0.90
2019-03-08T00:52:41.494Z,0.73
2019-03-08T00:56:45.518Z,0.60
2019-03-08T01:00:49.516Z,0.70
2019-03-08T01:04:54.581Z,0.80
2019-03-08T01:08:58.514Z,0.70
2019-03-08T01:13:02.813Z,0.80
2019-03-08T01:17:06.889Z,0.80
2019-03-08T01:21:11.179Z,0.73
2019-03-08T01:25:15.358Z,0.77
2019-03-08T01:29:19.411Z,0.80
2019-03-08T01:33:23.559Z,0.73
2019-03-08T01:37:27.639Z,0.80
2019-03-08T01:41:31.749Z,0.60
2019-03-08T01:45:35.716Z,0.80
2019-03-08T01:49:39.836Z,0.60
2019-03-08T01:53:44.004Z,0.70
2019-03-08T01:57:48.043Z,0.87
2019-03-08T02:01:52.197Z,0.90
2019-03-08T02:05:56.382Z,0.80
2019-03-08T02:10:02.456Z,0.70
2019-03-08T02:14:06.640Z,0.83
2019-03-08T02:18:10.534Z,0.83
2019-03-08T02:22:14.596Z,0.70
2019-03-08T02:26:18.915Z,0.70
2019-03-08T02:30:22.909Z,0.70
2019-03-08T02:34:27.128Z,0.90
2019-03-08T02:38:31.289Z,0.90
2019-03-08T02:42:35.336Z,0.80
2019-03-08T02:46:39.336Z,0.70
2019-03-08T02:50:43.348Z,0.80
2019-03-08T02:54:47.342Z,0.80
2019-03-08T02:58:51.464Z,0.80
2019-03-08T03:02:55.509Z,0.70
2019-03-08T03:06:59.883Z,0.77
2019-03-08T03:11:04.010Z,0.67
2019-03-08T03:15:08.273Z,0.83
2019-03-08T03:19:12.496Z,0.90
2019-03-08T03:23:16.869Z,0.80
2019-03-08T03:27:20.892Z,0.80
2019-03-08T03:31:25.192Z,1.00
2019-03-08T03:35:29.263Z,0.70
2019-03-08T03:39:34.552Z,0.80
2019-03-08T03:43:38.534Z,0.77
2019-03-08T03:47:42.551Z,0.63
2019-03-08T03:51:46.454Z,0.70
2019-03-08T03:55:50.412Z,0.77
2019-03-08T04:04:38.747Z,0.70
2019-03-08T04:08:42.788Z,0.80
2019-03-08T04:12:46.841Z,1.00
2019-03-08T04:16:50.812Z,0.90
2019-03-08T04:20:54.897Z,0.80
2019-03-08T04:24:58.867Z,0.90
2019-03-08T04:29:03.040Z,0.83
2019-03-08T04:33:07.083Z,0.90
2019-03-08T04:37:11.064Z,0.90
2019-03-08T04:41:15.199Z,0.70
2019-03-08T04:45:19.238Z,0.90
2019-03-08T04:49:23.318Z,0.80
2019-03-08T04:53:27.197Z,0.80
2019-03-08T04:57:31.208Z,1.00
2019-03-08T05:01:35.216Z,1.20
2019-03-08T05:05:39.304Z,0.80
2019-03-08T05:09:43.459Z,0.83
2019-03-08T05:13:47.566Z,0.80
2019-03-08T05:17:51.617Z,0.90
2019-03-08T05:21:55.506Z,0.80
2019-03-08T05:25:59.388Z,0.80
2019-03-08T05:30:03.569Z,1.10
2019-03-08T05:34:07.718Z,0.80
2019-03-08T05:38:11.809Z,1.20
2019-03-08T05:42:15.862Z,0.80
2019-03-08T05:46:21.241Z,0.90
2019-03-08T05:50:25.180Z,0.90
2019-03-08T05:54:29.193Z,0.80
2019-03-08T05:58:33.228Z,0.77
2019-03-08T06:02:37.218Z,0.80
2019-03-08T06:06:41.304Z,0.80
2019-03-08T06:10:45.416Z,0.80
2019-03-08T06:14:49.557Z,0.80
2019-03-08T06:18:53.585Z,0.80
2019-03-08T06:22:57.595Z,1.07
2019-03-08T06:27:01.495Z,0.80
2019-03-08T06:31:05.622Z,0.93
2019-03-08T06:35:09.789Z,0.80
2019-03-08T06:39:13.816Z,0.80
2019-03-08T06:43:20.411Z,0.87
2019-03-08T06:47:24.479Z,0.80
2019-03-08T06:51:28.425Z,0.73
2019-03-08T06:55:32.567Z,0.70
2019-03-08T06:59:43.649Z,0.73
2019-03-08T07:03:47.793Z,1.00
2019-03-08T07:07:51.708Z,1.10
2019-03-08T07:11:55.792Z,0.80
2019-03-08T07:15:59.856Z,1.00
2019-03-08T07:20:13.380Z,0.90
2019-03-08T07:24:24.952Z,0.70
2019-03-08T07:28:48.299Z,0.67
2019-03-08T07:33:00.271Z,0.60
2019-03-08T07:37:18.563Z,0.67
2019-03-08T07:41:30.033Z,0.70
2019-03-08T07:45:50.215Z,0.63
2019-03-08T07:50:03.660Z,0.63
2019-03-08T07:54:14.095Z,0.60
2019-03-08T07:58:29.251Z,0.60
2019-03-08T08:02:48.409Z,0.60
2019-03-08T08:07:11.559Z,0.60
2019-03-08T08:11:24.845Z,0.60
2019-03-08T08:15:40.320Z,0.40
2019-03-08T08:20:03.765Z,0.60
2019-03-08T08:24:19.507Z,0.60
2019-03-08T08:28:32.563Z,0.60
2019-03-08T08:32:56.877Z,0.83
2019-03-08T08:37:11.185Z,0.80
2019-03-08T08:41:34.553Z,0.60
2019-03-08T08:45:48.037Z,0.60
2019-03-08T08:50:01.577Z,0.50
2019-03-08T08:54:13.730Z,0.70
2019-03-08T08:58:26.348Z,0.70
2019-03-08T09:02:38.027Z,0.70
2019-03-08T09:06:49.093Z,0.70
2019-03-08T09:11:00.403Z,0.50
2019-03-08T09:15:11.965Z,0.50
2019-03-08T09:19:35.209Z,0.60
2019-03-08T09:23:53.934Z,0.50
2019-03-08T09:28:17.231Z,0.63
2019-03-08T09:32:30.510Z,0.60
2019-03-08T09:36:53.769Z,0.60
2019-03-08T09:41:16.884Z,0.50
2019-03-08T09:45:35.884Z,0.60
2019-03-08T09:49:58.984Z,0.73
2019-03-08T09:54:09.853Z,0.60
2019-03-08T09:58:33.073Z,0.60
2019-03-08T10:02:56.487Z,0.97
2019-03-08T10:07:19.562Z,0.80
2019-03-08T10:11:28.824Z,0.80
2019-03-08T10:15:37.973Z,0.80
2019-03-08T10:19:47.923Z,0.80
2019-03-08T10:23:58.842Z,0.80
2019-03-08T10:28:22.100Z,0.80
2019-03-08T10:32:45.325Z,0.80
2019-03-08T10:37:08.855Z,0.90
2019-03-08T10:41:32.026Z,0.87
2019-03-08T10:45:43.501Z,1.10
2019-03-08T10:49:56.184Z,1.00
2019-03-08T10:54:08.918Z,0.90
2019-03-08T10:58:32.307Z,1.00
2019-03-08T11:02:44.843Z,1.20
2019-03-08T11:07:07.934Z,1.17
2019-03-08T11:11:21.752Z,1.20
2019-03-08T11:15:46.794Z,1.03
2019-03-08T11:20:10.296Z,0.80
2019-03-08T11:24:27.878Z,1.10
2019-03-08T11:28:40.567Z,1.00
2019-03-08T11:32:50.607Z,1.50
2019-03-08T11:37:04.197Z,1.20
2019-03-08T11:41:15.964Z,1.33
2019-03-08T11:45:30.712Z,1.40
2019-03-08T11:49:53.903Z,1.27
2019-03-08T11:54:17.239Z,1.20
2019-03-08T11:58:30.559Z,1.13
2019-03-08T12:02:53.732Z,1.33
2019-03-08T12:07:17.211Z,1.30
2019-03-08T12:11:31.321Z,1.50
2019-03-08T12:15:43.311Z,1.40
2019-03-08T12:19:54.052Z,1.50
2019-03-08T12:24:17.374Z,1.50
2019-03-08T12:28:40.754Z,1.10
2019-03-08T12:32:52.155Z,1.70
2019-03-08T12:37:02.252Z,1.77
2019-03-08T12:41:14.841Z,1.60
2019-03-08T12:45:28.191Z,1.73
2019-03-08T12:49:41.805Z,1.30
2019-03-08T12:54:06.041Z,1.27
2019-03-08T12:58:21.823Z,1.00
2019-03-08T13:02:34.513Z,1.00
2019-03-08T13:06:47.059Z,1.00
2019-03-08T13:10:51.060Z,1.00
2019-03-08T13:14:55.144Z,1.20
2019-03-08T13:18:59.022Z,1.30
2019-03-08T13:23:03.261Z,1.17
2019-03-08T13:27:07.281Z,1.50
2019-03-08T13:31:11.428Z,1.33
2019-03-08T13:35:15.431Z,1.40
2019-03-08T13:39:19.570Z,1.17
2019-03-08T13:43:23.450Z,1.60
2019-03-08T13:47:27.336Z,1.20
2019-03-08T13:51:31.236Z,1.50
2019-03-08T13:55:35.670Z,1.20
2019-03-08T13:59:39.589Z,0.87
2019-03-08T14:03:43.525Z,1.17
2019-03-08T14:07:47.841Z,1.00
2019-03-08T14:11:52.905Z,0.90
2019-03-08T14:15:56.912Z,1.00
2019-03-08T14:20:00.916Z,1.00
2019-03-08T14:24:05.272Z,1.10
2019-03-08T14:28:09.308Z,0.80
2019-03-08T14:32:21.097Z,0.80
2019-03-08T14:36:23.402Z,0.90
2019-03-08T14:40:46.583Z,1.00
2019-03-08T14:44:56.023Z,1.00
2019-03-08T14:49:00.195Z,0.80
2019-03-08T14:53:04.097Z,1.00
2019-03-08T14:57:09.250Z,0.70
2019-03-08T15:01:14.108Z,0.87
2019-03-08T15:05:19.119Z,0.80
2019-03-08T15:09:23.926Z,0.67
2019-03-08T15:13:27.977Z,0.83
2019-03-08T15:17:33.254Z,0.67
2019-03-08T15:21:38.093Z,0.70
2019-03-08T15:25:45.316Z,0.80
2019-03-08T15:29:54.516Z,0.50
2019-03-08T15:33:54.420Z,0.80
2019-03-08T15:37:58.816Z,0.63
2019-03-08T15:42:03.464Z,1.07
2019-03-08T15:46:07.852Z,1.00
2019-03-08T15:50:13.143Z,1.00
2019-03-08T15:54:17.461Z,0.93
2019-03-08T15:58:21.625Z,0.70
2019-03-08T16:02:25.710Z,0.80
2019-03-08T16:06:29.779Z,0.80
2019-03-08T16:10:33.814Z,0.60
2019-03-08T16:14:37.984Z,0.60
2019-03-08T16:18:43.999Z,0.60
2019-03-08T16:22:47.732Z,0.50
2019-03-08T16:26:52.149Z,0.60
2019-03-08T16:31:03.582Z,0.50
2019-03-08T16:35:07.734Z,0.60
2019-03-08T16:39:17.530Z,0.67
2019-03-08T16:43:42.037Z,0.60
2019-03-08T16:48:05.282Z,0.70
2019-03-08T16:52:15.625Z,1.03
2019-03-08T16:56:39.912Z,2.03
2019-03-08T17:00:52.919Z,0.70
2019-03-08T17:05:06.256Z,1.00
2019-03-08T17:09:31.561Z,1.20
2019-03-08T17:13:43.249Z,1.53
2019-03-08T17:17:58.227Z,0.90
2019-03-08T17:22:12.688Z,0.63
2019-03-08T17:26:37.333Z,0.80
2019-03-08T17:31:00.575Z,1.07
2019-03-08T17:35:23.987Z,1.03
2019-03-08T17:39:47.175Z,1.00
2019-03-08T17:44:02.207Z,0.70
2019-03-08T17:48:13.762Z,0.80
2019-03-08T17:52:28.390Z,1.10
2019-03-08T17:56:41.089Z,1.70
2019-03-08T18:01:04.415Z,1.70
2019-03-08T18:05:16.425Z,1.50
2019-03-08T18:09:27.469Z,1.17
2019-03-08T18:13:50.726Z,1.57
2019-03-08T18:18:01.463Z,2.10
2019-03-08T18:22:10.631Z,1.87
2019-03-08T18:26:34.039Z,1.20
2019-03-08T18:30:52.819Z,1.50
2019-03-08T18:35:15.999Z,1.50
2019-03-08T18:39:41.754Z,1.70
2019-03-08T18:43:55.009Z,2.33
2019-03-08T18:48:09.281Z,1.60
2019-03-08T18:52:32.635Z,1.33
2019-03-08T18:56:55.806Z,1.80
2019-03-08T19:01:18.998Z,1.20
2019-03-08T19:05:42.284Z,1.40
2019-03-08T19:09:53.773Z,1.73
2019-03-08T19:14:07.860Z,1.80
2019-03-08T19:18:20.669Z,1.57
2019-03-08T19:22:37.140Z,1.50
2019-03-08T19:26:59.339Z,1.60
2019-03-08T19:31:10.349Z,5.40
2019-03-08T19:35:30.549Z,7.70
2019-03-08T19:39:42.581Z,5.97
2019-03-08T19:44:05.945Z,4.67
2019-03-08T19:48:24.089Z,3.33
2019-03-08T19:52:36.022Z,2.33
2019-03-08T19:56:59.296Z,1.70
2019-03-08T20:01:14.197Z,2.17
2019-03-08T20:05:28.680Z,2.30
2019-03-08T20:09:53.450Z,1.70
2019-03-08T20:14:08.381Z,1.60
2019-03-08T20:18:20.328Z,1.10
2019-03-08T20:22:34.358Z,1.37
2019-03-08T20:26:47.384Z,1.60
2019-03-08T20:31:03.935Z,1.40
2019-03-08T20:35:14.526Z,1.27
2019-03-08T20:39:37.884Z,1.47
2019-03-08T20:43:50.612Z,1.10
2019-03-08T20:47:54.682Z,1.13
2019-03-08T20:51:58.824Z,1.30
2019-03-08T20:56:04.116Z,1.60
2019-03-08T21:00:09.115Z,1.73
2019-03-08T21:04:15.424Z,1.37
2019-03-08T21:08:19.450Z,0.90
2019-03-08T21:12:23.576Z,1.10
2019-03-08T21:16:27.657Z,1.37
2019-03-08T21:20:32.639Z,1.40
2019-03-08T21:24:36.794Z,2.63
2019-03-08T21:28:40.750Z,2.00
2019-03-08T21:32:44.901Z,1.10
2019-03-08T21:36:48.986Z,1.50
2019-03-08T21:40:53.127Z,0.93
2019-03-08T21:44:57.209Z,0.97
2019-03-08T21:49:01.465Z,1.00
2019-03-08T21:53:05.668Z,1.03
2019-03-08T21:57:09.647Z,1.00
2019-03-08T22:01:13.663Z,1.20
2019-03-08T22:05:21.743Z,1.00
2019-03-08T22:09:37.178Z,1.00
2019-03-08T22:13:41.191Z,0.93
2019-03-08T22:17:45.148Z,0.90
2019-03-08T22:21:49.226Z,1.67
2019-03-08T22:25:53.336Z,1.50
2019-03-08T22:29:57.241Z,1.00
2019-03-08T22:34:02.028Z,0.90
2019-03-08T22:38:06.018Z,1.13
2019-03-08T22:42:10.971Z,0.90
2019-03-08T22:46:15.351Z,0.90
2019-03-08T22:50:19.468Z,1.30
2019-03-08T22:54:23.443Z,0.93
2019-03-08T22:58:27.482Z,1.00
2019-03-08T23:02:31.725Z,1.03
2019-03-08T23:06:35.835Z,0.90
2019-03-08T23:10:40.151Z,0.80
2019-03-08T23:14:44.080Z,0.83
2019-03-08T23:18:48.208Z,0.70
2019-03-08T23:22:52.258Z,1.00
2019-03-08T23:27:15.595Z,1.00
2019-03-08T23:31:24.327Z,0.83
2019-03-08T23:35:29.312Z,0.90
2019-03-08T23:39:33.639Z,0.97
2019-03-08T23:43:37.717Z,0.90
2019-03-08T23:47:41.637Z,0.83
2019-03-08T23:51:45.681Z,0.80
2019-03-08T23:55:49.725Z,0.73
2019-03-08T23:59:53.907Z,1.37
